Terminal Aerodrome Forecast
Issued by NWS Sterling, VA

Current Version | Previous Version | Graphics & Text | Print | Product List | Glossary On
Versions: 1 2 3 4 5 6 7 8 9 10 11 12 13 14 15 16 17 18 19 20 21 22
000
FTUS41 KLWX 231130
TAFDCA
TAF
KDCA 231130Z 2312/2412 32006KT P6SM FEW100
     FM232100 27007KT P6SM BKN050
     FM240200 27004KT P6SM SCT060
     FM240800 34004KT P6SM SCT200=

USA.gov is the U.S. government's official web portal to all federal, state and local government web resources and services.